»·PEaware :: UAL1777 KSFO-KSNA

UAL1777 :: KSFO-KSNA

FLIGHT INFORMATION

Flight Status: Arrived
Operator:
United Airlines
More flights by this operator :: More flights under this callsign
Pilot: Ben L. (6391)
Aircraft: BOEING 737-800
(B738)
More flights by this aircraft type
Origin: KSFO San Francisco Intl
United States
Destination: KSNA John Wayne-Orange Co
United States
More flights between these airports :: More routes between these airports
Route: SSTIK4 YYUNG TILLT TILLT2
File this flight plan on PilotEdge
Remarks:
Altitude:
(Current/Filed)
35,000ft
Speed:
(Current/Filed)
450kts
Departed: 11-May-20 10:27 AM
Arrived: 11-May-20 11:34 AM
Distance/Time
Traveled:
323nm/1:07
Distance/Time
To Go:
Arrived

Flight Plot

Page will automatically refresh every two minutes.

Flight plan parsing failed; only flown route is shown


Map Options




Map Legend


Flown Route
Filed Route
Departure Airport
Arrival Airport
Navaid (VOR, NDB)
Fix

Horizontal Profiles

Position Reports

Time Latitude Longitude Heading Altitude Ground
Speed
11-May-20 09:58 37.620174 -122.389399 27 33ft 0kts
11-May-20 09:59 37.620174 -122.389399 27 33ft 0kts
11-May-20 10:00 37.620174 -122.389399 27 33ft 0kts
11-May-20 10:01 37.620174 -122.389399 27 33ft 0kts
11-May-20 10:02 37.620174 -122.389399 27 33ft 0kts
11-May-20 10:03 37.620174 -122.389399 27 33ft 0kts
11-May-20 10:04 37.620173 -122.389399 27 33ft 0kts
11-May-20 10:05 37.620173 -122.389399 27 33ft 0kts
11-May-20 10:06 37.620173 -122.389399 27 33ft 0kts
11-May-20 10:07 37.620173 -122.389399 27 33ft 0kts
11-May-20 10:08 37.620173 -122.389399 27 33ft 0kts
11-May-20 10:09 37.620173 -122.389399 27 33ft 0kts
11-May-20 10:10 37.620173 -122.389399 27 33ft 0kts
11-May-20 10:11 37.620098 -122.389448 27 33ft 2kts
11-May-20 10:12 37.619574 -122.389563 345 33ft 2kts
11-May-20 10:13 37.619142 -122.389150 298 33ft 0kts
11-May-20 10:14 37.619116 -122.389083 296 33ft 0kts
11-May-20 10:15 37.619128 -122.389114 296 33ft 2kts
11-May-20 10:16 37.619947 -122.391171 298 33ft 6kts
11-May-20 10:17 37.621184 -122.391792 24 33ft 12kts
11-May-20 10:18 37.622281 -122.388235 119 32ft 16kts
11-May-20 10:19 37.619655 -122.382031 118 33ft 28kts
11-May-20 10:20 37.614831 -122.380805 207 33ft 25kts
11-May-20 10:21 37.609635 -122.384176 160 33ft 4kts
11-May-20 10:22 37.609482 -122.384064 142 33ft 0kts
11-May-20 10:23 37.609116 -122.383496 122 33ft 0kts
11-May-20 10:24 37.609115 -122.383496 122 33ft 0kts
11-May-20 10:25 37.608763 -122.382615 94 32ft 10kts
11-May-20 10:26 37.627057 -122.370470 29 218ft 180kts
11-May-20 10:27 37.672586 -122.359393 347 2948ft 184kts
11-May-20 10:28 37.704128 -122.410266 253 4173ft 241kts
11-May-20 10:29 37.646015 -122.447291 185 7090ft 254kts
11-May-20 10:30 37.574458 -122.457622 187 9967ft 273kts
11-May-20 10:31 37.501637 -122.467752 190 11127ft 267kts
11-May-20 10:32 37.417324 -122.483180 192 12723ft 326kts
11-May-20 10:33 37.326825 -122.503365 193 15584ft 338kts
11-May-20 10:34 37.232573 -122.524710 193 18206ft 352kts
11-May-20 10:35 37.134215 -122.543218 191 20560ft 365kts
11-May-20 10:36 37.030973 -122.554447 180 22524ft 388kts
11-May-20 10:37 36.926226 -122.505113 156 24239ft 423kts
11-May-20 10:38 36.822804 -122.429220 156 25895ft 437kts
11-May-20 10:39 36.716501 -122.351281 156 27331ft 450kts
11-May-20 10:40 36.607140 -122.271322 156 28638ft 462kts
11-May-20 10:41 36.495641 -122.190039 156 30027ft 468kts
11-May-20 10:42 36.390512 -122.113649 156 31469ft 468kts
11-May-20 10:43 36.278194 -122.032332 156 32896ft 468kts
11-May-20 10:44 36.165950 -121.951351 157 34255ft 468kts
11-May-20 10:45 36.053509 -121.870533 156 35071ft 473kts
11-May-20 10:46 35.953944 -121.759153 134 35041ft 495kts
11-May-20 10:47 35.869222 -121.624721 133 34868ft 499kts
11-May-20 10:48 35.784085 -121.489541 133 34803ft 500kts
11-May-20 10:49 35.698187 -121.353646 133 34804ft 505kts
11-May-20 10:50 35.612168 -121.217909 134 34804ft 502kts
11-May-20 10:51 35.524339 -121.085627 140 34898ft 493kts
11-May-20 10:52 35.425297 -120.972035 143 35039ft 485kts
11-May-20 10:53 35.324471 -120.861616 144 35074ft 485kts
11-May-20 10:54 35.223823 -120.752672 144 35074ft 484kts
11-May-20 10:55 35.130783 -120.652523 144 35076ft 486kts
11-May-20 10:56 35.027192 -120.548946 150 35091ft 480kts
11-May-20 10:57 34.916592 -120.457714 150 35101ft 483kts
11-May-20 10:58 34.804547 -120.366695 150 35063ft 483kts
11-May-20 10:59 34.695121 -120.278301 151 35046ft 482kts
11-May-20 11:00 34.582724 -120.188445 151 35074ft 484kts
11-May-20 11:01 34.470807 -120.099090 151 35080ft 482kts
11-May-20 11:02 34.359352 -120.010313 151 35098ft 479kts
11-May-20 11:03 34.247745 -119.921701 151 34826ft 484kts
11-May-20 11:04 34.134240 -119.831831 151 31409ft 489kts
11-May-20 11:05 34.040866 -119.715554 125 28754ft 476kts
11-May-20 11:06 33.973945 -119.583228 124 26575ft 450kts
11-May-20 11:07 33.910830 -119.457706 124 24457ft 428kts
11-May-20 11:08 33.851741 -119.338699 124 22730ft 405kts
11-May-20 11:09 33.795654 -119.224839 124 20804ft 389kts
11-May-20 11:10 33.741411 -119.115050 124 18903ft 377kts
11-May-20 11:11 33.688532 -119.008550 124 16931ft 367kts
11-May-20 11:12 33.637001 -118.904957 123 15041ft 357kts
11-May-20 11:13 33.586654 -118.804027 123 13176ft 349kts
11-May-20 11:14 33.558541 -118.692852 102 11272ft 363kts
11-May-20 11:15 33.538788 -118.570459 101 10163ft 349kts
11-May-20 11:16 33.521894 -118.460320 94 8772ft 338kts
11-May-20 11:17 33.521750 -118.328995 84 7040ft 404kts
11-May-20 11:18 33.538741 -118.209039 53 5569ft 341kts
11-May-20 11:19 33.595498 -118.129144 34 4973ft 281kts
11-May-20 11:20 33.659280 -118.092900 21 4985ft 237kts
11-May-20 11:21 33.720546 -118.060902 21 4996ft 249kts
11-May-20 11:22 33.786634 -118.026470 21 4992ft 263kts
11-May-20 11:23 33.850419 -117.991707 21 4989ft 239kts
11-May-20 11:24 33.881100 -117.927700 71 4990ft 221kts
11-May-20 11:25 33.896137 -117.858792 79 5009ft 203kts
11-May-20 11:26 33.889984 -117.793102 118 4636ft 201kts
11-May-20 11:27 33.852688 -117.747296 170 4056ft 191kts
11-May-20 11:28 33.808062 -117.767679 220 3442ft 155kts
11-May-20 11:29 33.776691 -117.799573 221 2153ft 144kts
11-May-20 11:30 33.743817 -117.825164 209 1337ft 138kts
11-May-20 11:31 33.709842 -117.846935 209 769ft 137kts
11-May-20 11:32 33.676652 -117.868206 208 67ft 115kts
11-May-20 11:33 33.669175 -117.870890 58 66ft 12kts
11-May-20 11:34 33.673712 -117.866745 30 66ft 20kts
11-May-20 11:35 33.674902 -117.865167 114 66ft 0kts

Navigation Log

Ident Type
Flight plan parsing failed, navigation log unavailable